sensor_id;sensor_type;location;lat;lon;timestamp;P1;durP1;ratioP1;P2;durP2;ratioP2
7027;SDS011;3555;53.248;10.336;2023-04-16T00:01:26;25.97;;;17.73;;
7027;SDS011;3555;53.248;10.336;2023-04-16T00:03:53;29.53;;;18.53;;
7027;SDS011;3555;53.248;10.336;2023-04-16T00:06:21;26.30;;;18.67;;
7027;SDS011;3555;53.248;10.336;2023-04-16T00:08:48;28.37;;;18.57;;
7027;SDS011;3555;53.248;10.336;2023-04-16T00:11:15;30.03;;;18.73;;
7027;SDS011;3555;53.248;10.336;2023-04-16T00:13:43;29.13;;;19.27;;
7027;SDS011;3555;53.248;10.336;2023-04-16T00:16:09;25.20;;;18.43;;
7027;SDS011;3555;53.248;10.336;2023-04-16T00:18:38;27.87;;;17.47;;
7027;SDS011;3555;53.248;10.336;2023-04-16T00:21:05;26.70;;;19.10;;
7027;SDS011;3555;53.248;10.336;2023-04-16T00:23:32;24.33;;;17.53;;
7027;SDS011;3555;53.248;10.336;2023-04-16T00:25:59;27.67;;;18.60;;
7027;SDS011;3555;53.248;10.336;2023-04-16T00:28:26;26.27;;;17.23;;
7027;SDS011;3555;53.248;10.336;2023-04-16T00:30:54;23.73;;;16.30;;
7027;SDS011;3555;53.248;10.336;2023-04-16T00:33:23;26.67;;;17.43;;
7027;SDS011;3555;53.248;10.336;2023-04-16T00:35:52;26.50;;;17.53;;
7027;SDS011;3555;53.248;10.336;2023-04-16T00:38:19;27.00;;;17.93;;
7027;SDS011;3555;53.248;10.336;2023-04-16T00:40:54;24.77;;;17.50;;
7027;SDS011;3555;53.248;10.336;2023-04-16T00:43:23;24.23;;;17.03;;
7027;SDS011;3555;53.248;10.336;2023-04-16T00:45:52;26.23;;;18.67;;
7027;SDS011;3555;53.248;10.336;2023-04-16T00:48:22;27.33;;;18.40;;
7027;SDS011;3555;53.248;10.336;2023-04-16T00:50:53;32.97;;;18.27;;
7027;SDS011;3555;53.248;10.336;2023-04-16T00:53:20;25.50;;;17.20;;
7027;SDS011;3555;53.248;10.336;2023-04-16T00:55:48;26.87;;;17.13;;
7027;SDS011;3555;53.248;10.336;2023-04-16T00:58:16;27.23;;;17.67;;
7027;SDS011;3555;53.248;10.336;2023-04-16T01:00:44;22.50;;;16.30;;
7027;SDS011;3555;53.248;10.336;2023-04-16T01:03:11;24.80;;;17.07;;
7027;SDS011;3555;53.248;10.336;2023-04-16T01:05:38;25.93;;;17.57;;
7027;SDS011;3555;53.248;10.336;2023-04-16T01:08:11;24.50;;;16.97;;
7027;SDS011;3555;53.248;10.336;2023-04-16T01:10:41;25.73;;;16.13;;
7027;SDS011;3555;53.248;10.336;2023-04-16T01:13:08;25.47;;;16.30;;
7027;SDS011;3555;53.248;10.336;2023-04-16T01:15:35;25.83;;;16.40;;
7027;SDS011;3555;53.248;10.336;2023-04-16T01:18:02;25.60;;;16.43;;
7027;SDS011;3555;53.248;10.336;2023-04-16T01:20:39;21.43;;;15.93;;
7027;SDS011;3555;53.248;10.336;2023-04-16T01:23:07;23.83;;;16.10;;
7027;SDS011;3555;53.248;10.336;2023-04-16T01:25:33;24.63;;;16.60;;
7027;SDS011;3555;53.248;10.336;2023-04-16T01:28:02;22.50;;;16.17;;
7027;SDS011;3555;53.248;10.336;2023-04-16T01:30:29;28.90;;;17.00;;
7027;SDS011;3555;53.248;10.336;2023-04-16T01:32:56;25.07;;;16.37;;
7027;SDS011;3555;53.248;10.336;2023-04-16T01:35:23;27.13;;;16.83;;
7027;SDS011;3555;53.248;10.336;2023-04-16T01:37:52;22.33;;;14.67;;
7027;SDS011;3555;53.248;10.336;2023-04-16T01:40:19;21.97;;;15.53;;
7027;SDS011;3555;53.248;10.336;2023-04-16T01:42:47;20.60;;;14.93;;
7027;SDS011;3555;53.248;10.336;2023-04-16T01:45:15;23.70;;;16.67;;
7027;SDS011;3555;53.248;10.336;2023-04-16T01:47:44;24.83;;;15.57;;
7027;SDS011;3555;53.248;10.336;2023-04-16T01:50:11;21.57;;;13.77;;
7027;SDS011;3555;53.248;10.336;2023-04-16T01:52:38;21.37;;;15.23;;
7027;SDS011;3555;53.248;10.336;2023-04-16T01:55:07;20.93;;;14.50;;
7027;SDS011;3555;53.248;10.336;2023-04-16T01:57:34;23.77;;;14.83;;
7027;SDS011;3555;53.248;10.336;2023-04-16T02:00:03;19.00;;;14.93;;
7027;SDS011;3555;53.248;10.336;2023-04-16T02:02:31;23.37;;;15.37;;
7027;SDS011;3555;53.248;10.336;2023-04-16T02:05:00;23.97;;;15.30;;
7027;SDS011;3555;53.248;10.336;2023-04-16T02:07:29;23.37;;;15.50;;
7027;SDS011;3555;53.248;10.336;2023-04-16T02:09:57;23.57;;;15.17;;
7027;SDS011;3555;53.248;10.336;2023-04-16T02:12:26;22.03;;;15.43;;
7027;SDS011;3555;53.248;10.336;2023-04-16T02:14:53;26.93;;;15.83;;
7027;SDS011;3555;53.248;10.336;2023-04-16T02:17:20;20.37;;;14.47;;
7027;SDS011;3555;53.248;10.336;2023-04-16T02:19:49;22.53;;;15.23;;
7027;SDS011;3555;53.248;10.336;2023-04-16T02:22:16;21.07;;;15.43;;
7027;SDS011;3555;53.248;10.336;2023-04-16T02:24:43;21.40;;;14.47;;
7027;SDS011;3555;53.248;10.336;2023-04-16T02:27:09;19.90;;;14.20;;
7027;SDS011;3555;53.248;10.336;2023-04-16T02:29:38;23.03;;;15.00;;
7027;SDS011;3555;53.248;10.336;2023-04-16T02:32:06;23.40;;;14.90;;
7027;SDS011;3555;53.248;10.336;2023-04-16T02:34:33;20.27;;;14.20;;
7027;SDS011;3555;53.248;10.336;2023-04-16T02:37:00;20.33;;;14.00;;
7027;SDS011;3555;53.248;10.336;2023-04-16T02:39:27;20.67;;;13.47;;
7027;SDS011;3555;53.248;10.336;2023-04-16T02:41:54;23.00;;;14.00;;
7027;SDS011;3555;53.248;10.336;2023-04-16T02:44:21;24.27;;;14.10;;
7027;SDS011;3555;53.248;10.336;2023-04-16T02:46:50;25.70;;;13.47;;
7027;SDS011;3555;53.248;10.336;2023-04-16T02:49:17;22.53;;;13.47;;
7027;SDS011;3555;53.248;10.336;2023-04-16T02:51:44;17.53;;;13.87;;
7027;SDS011;3555;53.248;10.336;2023-04-16T02:54:11;19.47;;;13.27;;
7027;SDS011;3555;53.248;10.336;2023-04-16T02:56:38;20.17;;;13.40;;
7027;SDS011;3555;53.248;10.336;2023-04-16T02:59:05;19.80;;;12.43;;
7027;SDS011;3555;53.248;10.336;2023-04-16T03:01:32;19.23;;;13.33;;
7027;SDS011;3555;53.248;10.336;2023-04-16T03:04:00;20.27;;;14.03;;
7027;SDS011;3555;53.248;10.336;2023-04-16T03:06:27;21.43;;;13.90;;
7027;SDS011;3555;53.248;10.336;2023-04-16T03:08:56;19.00;;;13.20;;
7027;SDS011;3555;53.248;10.336;2023-04-16T03:11:23;20.00;;;13.37;;
7027;SDS011;3555;53.248;10.336;2023-04-16T03:13:50;20.90;;;13.23;;
7027;SDS011;3555;53.248;10.336;2023-04-16T03:16:17;20.10;;;13.70;;
7027;SDS011;3555;53.248;10.336;2023-04-16T03:18:44;16.40;;;12.57;;
7027;SDS011;3555;53.248;10.336;2023-04-16T03:21:13;20.00;;;13.20;;
7027;SDS011;3555;53.248;10.336;2023-04-16T03:23:40;17.30;;;12.57;;
7027;SDS011;3555;53.248;10.336;2023-04-16T03:26:08;22.40;;;13.80;;
7027;SDS011;3555;53.248;10.336;2023-04-16T03:28:35;20.73;;;12.37;;
7027;SDS011;3555;53.248;10.336;2023-04-16T03:31:02;17.23;;;12.50;;
7027;SDS011;3555;53.248;10.336;2023-04-16T03:33:30;17.67;;;12.07;;
7027;SDS011;3555;53.248;10.336;2023-04-16T03:35:57;18.13;;;12.63;;
7027;SDS011;3555;53.248;10.336;2023-04-16T03:38:25;19.17;;;13.53;;
7027;SDS011;3555;53.248;10.336;2023-04-16T03:40:53;19.33;;;12.50;;
7027;SDS011;3555;53.248;10.336;2023-04-16T03:43:20;17.30;;;11.83;;
7027;SDS011;3555;53.248;10.336;2023-04-16T03:45:50;19.27;;;12.17;;
7027;SDS011;3555;53.248;10.336;2023-04-16T03:48:18;17.03;;;12.73;;
7027;SDS011;3555;53.248;10.336;2023-04-16T03:50:46;18.73;;;13.10;;
7027;SDS011;3555;53.248;10.336;2023-04-16T03:53:13;16.87;;;12.10;;
7027;SDS011;3555;53.248;10.336;2023-04-16T03:55:42;20.10;;;12.17;;
7027;SDS011;3555;53.248;10.336;2023-04-16T03:58:09;17.80;;;12.83;;
7027;SDS011;3555;53.248;10.336;2023-04-16T04:00:36;17.77;;;11.67;;
7027;SDS011;3555;53.248;10.336;2023-04-16T04:03:06;15.30;;;11.77;;
7027;SDS011;3555;53.248;10.336;2023-04-16T04:05:34;18.70;;;12.00;;
7027;SDS011;3555;53.248;10.336;2023-04-16T04:08:01;16.57;;;11.20;;
7027;SDS011;3555;53.248;10.336;2023-04-16T04:10:30;16.60;;;11.30;;
7027;SDS011;3555;53.248;10.336;2023-04-16T04:12:58;15.47;;;11.13;;
7027;SDS011;3555;53.248;10.336;2023-04-16T04:15:26;16.07;;;11.40;;
7027;SDS011;3555;53.248;10.336;2023-04-16T04:17:53;15.83;;;11.37;;
7027;SDS011;3555;53.248;10.336;2023-04-16T04:20:20;18.07;;;11.53;;
7027;SDS011;3555;53.248;10.336;2023-04-16T04:22:47;15.10;;;11.10;;
7027;SDS011;3555;53.248;10.336;2023-04-16T04:25:15;15.10;;;11.53;;
7027;SDS011;3555;53.248;10.336;2023-04-16T04:27:42;17.87;;;12.13;;
7027;SDS011;3555;53.248;10.336;2023-04-16T04:30:10;14.47;;;11.10;;
7027;SDS011;3555;53.248;10.336;2023-04-16T04:32:37;16.00;;;11.70;;
7027;SDS011;3555;53.248;10.336;2023-04-16T04:35:06;15.33;;;11.53;;
7027;SDS011;3555;53.248;10.336;2023-04-16T04:37:34;14.40;;;10.73;;
7027;SDS011;3555;53.248;10.336;2023-04-16T04:40:00;15.70;;;11.77;;
7027;SDS011;3555;53.248;10.336;2023-04-16T04:42:28;17.30;;;11.17;;
7027;SDS011;3555;53.248;10.336;2023-04-16T04:44:55;15.60;;;11.60;;
7027;SDS011;3555;53.248;10.336;2023-04-16T04:47:23;17.27;;;11.40;;
7027;SDS011;3555;53.248;10.336;2023-04-16T04:49:51;22.60;;;13.90;;
7027;SDS011;3555;53.248;10.336;2023-04-16T04:52:18;16.93;;;11.77;;
7027;SDS011;3555;53.248;10.336;2023-04-16T04:54:45;15.37;;;11.47;;
7027;SDS011;3555;53.248;10.336;2023-04-16T04:57:12;18.47;;;11.67;;
7027;SDS011;3555;53.248;10.336;2023-04-16T04:59:39;20.10;;;12.60;;
7027;SDS011;3555;53.248;10.336;2023-04-16T05:02:06;19.10;;;11.50;;
7027;SDS011;3555;53.248;10.336;2023-04-16T05:04:35;18.17;;;11.77;;
7027;SDS011;3555;53.248;10.336;2023-04-16T05:07:02;17.70;;;11.70;;
7027;SDS011;3555;53.248;10.336;2023-04-16T05:09:30;17.03;;;11.90;;
7027;SDS011;3555;53.248;10.336;2023-04-16T05:11:57;19.20;;;11.33;;
7027;SDS011;3555;53.248;10.336;2023-04-16T05:14:24;18.47;;;11.80;;
7027;SDS011;3555;53.248;10.336;2023-04-16T05:16:53;15.40;;;11.20;;
7027;SDS011;3555;53.248;10.336;2023-04-16T05:19:20;17.37;;;11.47;;
7027;SDS011;3555;53.248;10.336;2023-04-16T05:21:49;16.93;;;12.73;;
7027;SDS011;3555;53.248;10.336;2023-04-16T05:24:16;15.73;;;11.73;;
7027;SDS011;3555;53.248;10.336;2023-04-16T05:26:43;17.93;;;11.37;;
7027;SDS011;3555;53.248;10.336;2023-04-16T05:29:10;15.47;;;11.10;;
7027;SDS011;3555;53.248;10.336;2023-04-16T05:31:37;16.37;;;11.23;;
7027;SDS011;3555;53.248;10.336;2023-04-16T05:34:04;16.23;;;11.50;;
7027;SDS011;3555;53.248;10.336;2023-04-16T05:36:31;15.50;;;11.13;;
7027;SDS011;3555;53.248;10.336;2023-04-16T05:38:59;17.13;;;12.27;;
7027;SDS011;3555;53.248;10.336;2023-04-16T05:41:26;15.97;;;12.17;;
7027;SDS011;3555;53.248;10.336;2023-04-16T05:43:53;23.03;;;12.03;;
7027;SDS011;3555;53.248;10.336;2023-04-16T05:46:20;16.63;;;12.00;;
7027;SDS011;3555;53.248;10.336;2023-04-16T05:48:47;15.93;;;11.30;;
7027;SDS011;3555;53.248;10.336;2023-04-16T05:51:13;19.03;;;11.43;;
7027;SDS011;3555;53.248;10.336;2023-04-16T05:53:40;16.83;;;11.60;;
7027;SDS011;3555;53.248;10.336;2023-04-16T05:56:09;16.70;;;11.80;;
7027;SDS011;3555;53.248;10.336;2023-04-16T05:58:35;16.97;;;11.77;;
7027;SDS011;3555;53.248;10.336;2023-04-16T06:01:02;17.63;;;12.07;;
7027;SDS011;3555;53.248;10.336;2023-04-16T06:03:29;16.47;;;11.13;;
7027;SDS011;3555;53.248;10.336;2023-04-16T06:05:56;19.70;;;11.93;;
7027;SDS011;3555;53.248;10.336;2023-04-16T06:08:23;19.13;;;13.10;;
7027;SDS011;3555;53.248;10.336;2023-04-16T06:10:50;21.37;;;12.20;;
7027;SDS011;3555;53.248;10.336;2023-04-16T06:13:18;17.27;;;11.83;;
7027;SDS011;3555;53.248;10.336;2023-04-16T06:15:45;18.53;;;12.40;;
7027;SDS011;3555;53.248;10.336;2023-04-16T06:18:12;16.80;;;12.43;;
7027;SDS011;3555;53.248;10.336;2023-04-16T06:20:39;17.87;;;12.63;;
7027;SDS011;3555;53.248;10.336;2023-04-16T06:23:06;16.40;;;11.83;;
7027;SDS011;3555;53.248;10.336;2023-04-16T06:25:33;17.67;;;12.20;;
7027;SDS011;3555;53.248;10.336;2023-04-16T06:28:00;16.17;;;12.07;;
7027;SDS011;3555;53.248;10.336;2023-04-16T06:30:28;14.40;;;11.03;;
7027;SDS011;3555;53.248;10.336;2023-04-16T06:32:55;19.93;;;11.90;;
7027;SDS011;3555;53.248;10.336;2023-04-16T06:35:21;16.63;;;11.73;;
7027;SDS011;3555;53.248;10.336;2023-04-16T06:37:48;21.07;;;12.13;;
7027;SDS011;3555;53.248;10.336;2023-04-16T06:40:15;20.97;;;12.60;;
7027;SDS011;3555;53.248;10.336;2023-04-16T06:42:42;16.70;;;11.70;;
7027;SDS011;3555;53.248;10.336;2023-04-16T06:45:10;15.43;;;11.20;;
7027;SDS011;3555;53.248;10.336;2023-04-16T06:47:38;18.13;;;12.33;;
7027;SDS011;3555;53.248;10.336;2023-04-16T06:50:06;17.27;;;12.77;;
7027;SDS011;3555;53.248;10.336;2023-04-16T06:52:33;18.07;;;12.50;;
7027;SDS011;3555;53.248;10.336;2023-04-16T06:55:00;19.00;;;13.87;;
7027;SDS011;3555;53.248;10.336;2023-04-16T06:57:27;17.30;;;12.03;;
7027;SDS011;3555;53.248;10.336;2023-04-16T06:59:54;16.80;;;12.37;;
7027;SDS011;3555;53.248;10.336;2023-04-16T07:02:20;17.50;;;12.03;;
7027;SDS011;3555;53.248;10.336;2023-04-16T07:04:49;19.33;;;13.40;;
7027;SDS011;3555;53.248;10.336;2023-04-16T07:07:16;19.87;;;13.27;;
7027;SDS011;3555;53.248;10.336;2023-04-16T07:09:43;15.70;;;12.07;;
7027;SDS011;3555;53.248;10.336;2023-04-16T07:12:10;20.10;;;13.33;;
7027;SDS011;3555;53.248;10.336;2023-04-16T07:14:37;18.20;;;12.97;;
7027;SDS011;3555;53.248;10.336;2023-04-16T07:17:04;16.00;;;13.03;;
7027;SDS011;3555;53.248;10.336;2023-04-16T07:19:31;18.50;;;12.97;;
7027;SDS011;3555;53.248;10.336;2023-04-16T07:21:59;23.87;;;15.17;;
7027;SDS011;3555;53.248;10.336;2023-04-16T07:24:26;16.73;;;11.87;;
7027;SDS011;3555;53.248;10.336;2023-04-16T07:26:53;16.03;;;11.77;;
7027;SDS011;3555;53.248;10.336;2023-04-16T07:29:20;16.63;;;12.00;;
7027;SDS011;3555;53.248;10.336;2023-04-16T07:31:47;17.43;;;12.23;;
7027;SDS011;3555;53.248;10.336;2023-04-16T07:34:15;14.80;;;12.10;;
7027;SDS011;3555;53.248;10.336;2023-04-16T07:36:41;18.53;;;12.43;;
7027;SDS011;3555;53.248;10.336;2023-04-16T07:39:10;16.00;;;12.03;;
7027;SDS011;3555;53.248;10.336;2023-04-16T07:41:37;16.10;;;12.30;;
7027;SDS011;3555;53.248;10.336;2023-04-16T07:44:05;16.00;;;12.20;;
7027;SDS011;3555;53.248;10.336;2023-04-16T07:46:32;17.63;;;12.07;;
7027;SDS011;3555;53.248;10.336;2023-04-16T07:48:58;16.90;;;12.17;;
7027;SDS011;3555;53.248;10.336;2023-04-16T07:51:25;19.50;;;12.97;;
7027;SDS011;3555;53.248;10.336;2023-04-16T07:53:52;17.80;;;11.33;;
7027;SDS011;3555;53.248;10.336;2023-04-16T07:56:20;19.87;;;12.47;;
7027;SDS011;3555;53.248;10.336;2023-04-16T07:58:47;16.97;;;11.50;;
7027;SDS011;3555;53.248;10.336;2023-04-16T08:01:14;17.57;;;12.10;;
7027;SDS011;3555;53.248;10.336;2023-04-16T08:03:41;17.70;;;12.00;;
7027;SDS011;3555;53.248;10.336;2023-04-16T08:06:08;16.47;;;11.90;;
7027;SDS011;3555;53.248;10.336;2023-04-16T08:08:35;14.53;;;11.17;;
7027;SDS011;3555;53.248;10.336;2023-04-16T08:11:02;13.97;;;11.03;;
7027;SDS011;3555;53.248;10.336;2023-04-16T08:13:30;18.93;;;11.67;;
7027;SDS011;3555;53.248;10.336;2023-04-16T08:15:57;15.80;;;10.93;;
7027;SDS011;3555;53.248;10.336;2023-04-16T08:18:23;13.57;;;10.63;;
7027;SDS011;3555;53.248;10.336;2023-04-16T08:20:51;15.00;;;11.57;;
7027;SDS011;3555;53.248;10.336;2023-04-16T08:23:17;17.10;;;11.30;;
7027;SDS011;3555;53.248;10.336;2023-04-16T08:25:45;17.90;;;10.83;;
7027;SDS011;3555;53.248;10.336;2023-04-16T08:28:12;18.30;;;12.10;;
7027;SDS011;3555;53.248;10.336;2023-04-16T08:30:41;16.17;;;11.60;;
7027;SDS011;3555;53.248;10.336;2023-04-16T08:33:09;15.33;;;11.27;;
7027;SDS011;3555;53.248;10.336;2023-04-16T08:35:38;14.50;;;10.87;;
7027;SDS011;3555;53.248;10.336;2023-04-16T08:38:04;14.80;;;11.43;;
7027;SDS011;3555;53.248;10.336;2023-04-16T08:40:32;17.93;;;11.90;;
7027;SDS011;3555;53.248;10.336;2023-04-16T08:43:03;16.30;;;10.63;;
7027;SDS011;3555;53.248;10.336;2023-04-16T08:45:34;16.80;;;11.50;;
7027;SDS011;3555;53.248;10.336;2023-04-16T08:48:05;13.03;;;10.97;;
7027;SDS011;3555;53.248;10.336;2023-04-16T08:50:32;16.10;;;11.57;;
7027;SDS011;3555;53.248;10.336;2023-04-16T08:53:02;15.90;;;11.07;;
7027;SDS011;3555;53.248;10.336;2023-04-16T08:55:31;15.90;;;11.70;;
7027;SDS011;3555;53.248;10.336;2023-04-16T08:58:02;15.67;;;10.90;;
7027;SDS011;3555;53.248;10.336;2023-04-16T09:00:34;14.13;;;11.17;;
7027;SDS011;3555;53.248;10.336;2023-04-16T09:03:06;16.97;;;11.73;;
7027;SDS011;3555;53.248;10.336;2023-04-16T09:05:34;13.70;;;10.23;;
7027;SDS011;3555;53.248;10.336;2023-04-16T09:08:03;15.57;;;11.13;;
7027;SDS011;3555;53.248;10.336;2023-04-16T09:10:30;16.37;;;11.10;;
7027;SDS011;3555;53.248;10.336;2023-04-16T09:12:57;16.63;;;11.50;;
7027;SDS011;3555;53.248;10.336;2023-04-16T09:15:24;16.83;;;11.27;;
7027;SDS011;3555;53.248;10.336;2023-04-16T09:17:51;15.53;;;11.20;;
7027;SDS011;3555;53.248;10.336;2023-04-16T09:20:19;17.10;;;11.90;;
7027;SDS011;3555;53.248;10.336;2023-04-16T09:22:46;15.13;;;11.40;;
7027;SDS011;3555;53.248;10.336;2023-04-16T09:25:13;17.87;;;11.73;;
7027;SDS011;3555;53.248;10.336;2023-04-16T09:27:40;14.83;;;11.33;;
7027;SDS011;3555;53.248;10.336;2023-04-16T09:30:18;14.80;;;11.97;;
7027;SDS011;3555;53.248;10.336;2023-04-16T09:32:47;16.67;;;10.80;;
7027;SDS011;3555;53.248;10.336;2023-04-16T09:35:14;14.27;;;11.23;;
7027;SDS011;3555;53.248;10.336;2023-04-16T09:37:46;13.70;;;10.50;;
7027;SDS011;3555;53.248;10.336;2023-04-16T09:40:22;15.53;;;10.40;;
7027;SDS011;3555;53.248;10.336;2023-04-16T09:42:50;15.70;;;11.27;;
7027;SDS011;3555;53.248;10.336;2023-04-16T09:45:20;15.03;;;11.23;;
7027;SDS011;3555;53.248;10.336;2023-04-16T09:47:47;12.43;;;10.23;;
7027;SDS011;3555;53.248;10.336;2023-04-16T09:50:14;14.63;;;10.63;;
7027;SDS011;3555;53.248;10.336;2023-04-16T09:52:42;15.20;;;11.60;;
7027;SDS011;3555;53.248;10.336;2023-04-16T09:55:11;14.83;;;10.33;;
7027;SDS011;3555;53.248;10.336;2023-04-16T09:57:37;14.27;;;10.63;;
7027;SDS011;3555;53.248;10.336;2023-04-16T10:00:05;14.67;;;10.60;;
7027;SDS011;3555;53.248;10.336;2023-04-16T10:02:34;13.43;;;10.10;;
7027;SDS011;3555;53.248;10.336;2023-04-16T10:05:05;16.50;;;10.32;;
7027;SDS011;3555;53.248;10.336;2023-04-16T10:07:35;13.83;;;10.70;;
7027;SDS011;3555;53.248;10.336;2023-04-16T10:10:02;15.67;;;10.53;;
7027;SDS011;3555;53.248;10.336;2023-04-16T10:12:32;14.47;;;10.23;;
7027;SDS011;3555;53.248;10.336;2023-04-16T10:15:03;15.13;;;10.63;;
7027;SDS011;3555;53.248;10.336;2023-04-16T10:17:31;15.07;;;10.27;;
7027;SDS011;3555;53.248;10.336;2023-04-16T10:19:58;18.40;;;10.63;;
7027;SDS011;3555;53.248;10.336;2023-04-16T10:22:26;12.57;;;9.68;;
7027;SDS011;3555;53.248;10.336;2023-04-16T10:24:53;13.98;;;9.68;;
7027;SDS011;3555;53.248;10.336;2023-04-16T10:27:20;13.77;;;9.63;;
7027;SDS011;3555;53.248;10.336;2023-04-16T10:29:49;17.45;;;11.63;;
7027;SDS011;3555;53.248;10.336;2023-04-16T10:32:17;10.70;;;9.07;;
7027;SDS011;3555;53.248;10.336;2023-04-16T10:34:46;12.38;;;9.70;;
7027;SDS011;3555;53.248;10.336;2023-04-16T10:37:13;14.43;;;9.93;;
7027;SDS011;3555;53.248;10.336;2023-04-16T10:39:42;13.02;;;9.82;;
7027;SDS011;3555;53.248;10.336;2023-04-16T10:42:09;13.50;;;9.30;;
7027;SDS011;3555;53.248;10.336;2023-04-16T10:44:36;13.35;;;9.82;;
7027;SDS011;3555;53.248;10.336;2023-04-16T10:47:10;12.25;;;9.65;;
7027;SDS011;3555;53.248;10.336;2023-04-16T10:49:37;11.73;;;9.75;;
7027;SDS011;3555;53.248;10.336;2023-04-16T10:52:09;13.75;;;9.52;;
7027;SDS011;3555;53.248;10.336;2023-04-16T10:54:37;11.85;;;8.60;;
7027;SDS011;3555;53.248;10.336;2023-04-16T10:57:05;10.63;;;8.70;;
7027;SDS011;3555;53.248;10.336;2023-04-16T10:59:33;11.48;;;9.10;;
7027;SDS011;3555;53.248;10.336;2023-04-16T11:02:05;12.95;;;7.97;;
7027;SDS011;3555;53.248;10.336;2023-04-16T11:04:35;12.40;;;9.13;;
7027;SDS011;3555;53.248;10.336;2023-04-16T11:07:04;12.88;;;8.98;;
7027;SDS011;3555;53.248;10.336;2023-04-16T11:12:32;10.15;;;8.30;;
7027;SDS011;3555;53.248;10.336;2023-04-16T11:15:02;11.95;;;9.10;;
7027;SDS011;3555;53.248;10.336;2023-04-16T11:17:30;13.85;;;8.85;;
7027;SDS011;3555;53.248;10.336;2023-04-16T11:20:03;10.23;;;8.00;;
7027;SDS011;3555;53.248;10.336;2023-04-16T11:22:33;12.15;;;8.93;;
7027;SDS011;3555;53.248;10.336;2023-04-16T11:25:01;10.85;;;8.32;;
7027;SDS011;3555;53.248;10.336;2023-04-16T11:27:28;12.13;;;8.32;;
7027;SDS011;3555;53.248;10.336;2023-04-16T11:29:56;10.30;;;8.43;;
7027;SDS011;3555;53.248;10.336;2023-04-16T11:32:24;10.18;;;7.88;;
7027;SDS011;3555;53.248;10.336;2023-04-16T11:34:51;12.20;;;8.25;;
7027;SDS011;3555;53.248;10.336;2023-04-16T11:37:20;12.68;;;8.70;;
7027;SDS011;3555;53.248;10.336;2023-04-16T11:39:56;11.25;;;8.65;;
7027;SDS011;3555;53.248;10.336;2023-04-16T11:42:23;13.35;;;8.27;;
7027;SDS011;3555;53.248;10.336;2023-04-16T11:44:51;14.40;;;9.25;;
7027;SDS011;3555;53.248;10.336;2023-04-16T11:47:19;10.60;;;7.97;;
7027;SDS011;3555;53.248;10.336;2023-04-16T11:49:46;9.93;;;7.85;;
7027;SDS011;3555;53.248;10.336;2023-04-16T11:52:13;11.20;;;7.45;;
7027;SDS011;3555;53.248;10.336;2023-04-16T11:54:51;11.95;;;8.50;;
7027;SDS011;3555;53.248;10.336;2023-04-16T11:57:23;10.25;;;8.10;;
7027;SDS011;3555;53.248;10.336;2023-04-16T11:59:51;11.20;;;8.38;;
7027;SDS011;3555;53.248;10.336;2023-04-16T12:02:32;9.48;;;8.13;;
7027;SDS011;3555;53.248;10.336;2023-04-16T12:05:00;10.30;;;7.90;;
7027;SDS011;3555;53.248;10.336;2023-04-16T12:07:28;8.55;;;7.47;;
7027;SDS011;3555;53.248;10.336;2023-04-16T12:10:05;10.15;;;7.30;;
7027;SDS011;3555;53.248;10.336;2023-04-16T12:12:32;9.15;;;7.00;;
7027;SDS011;3555;53.248;10.336;2023-04-16T12:14:59;9.32;;;6.65;;
7027;SDS011;3555;53.248;10.336;2023-04-16T12:17:28;8.65;;;6.28;;
7027;SDS011;3555;53.248;10.336;2023-04-16T12:19:55;8.82;;;6.15;;
7027;SDS011;3555;53.248;10.336;2023-04-16T12:22:27;9.48;;;6.30;;
7027;SDS011;3555;53.248;10.336;2023-04-16T12:24:56;8.02;;;6.43;;
7027;SDS011;3555;53.248;10.336;2023-04-16T12:27:26;7.78;;;5.90;;
7027;SDS011;3555;53.248;10.336;2023-04-16T12:30:07;7.78;;;6.30;;
7027;SDS011;3555;53.248;10.336;2023-04-16T12:32:34;8.55;;;5.35;;
7027;SDS011;3555;53.248;10.336;2023-04-16T12:35:01;6.65;;;5.45;;
7027;SDS011;3555;53.248;10.336;2023-04-16T12:37:38;8.07;;;6.90;;
7027;SDS011;3555;53.248;10.336;2023-04-16T12:40:06;7.38;;;6.05;;
7027;SDS011;3555;53.248;10.336;2023-04-16T12:42:35;8.60;;;6.68;;
7027;SDS011;3555;53.248;10.336;2023-04-16T12:45:02;9.07;;;6.60;;
7027;SDS011;3555;53.248;10.336;2023-04-16T12:47:30;8.82;;;6.10;;
7027;SDS011;3555;53.248;10.336;2023-04-16T12:49:58;7.68;;;6.30;;
7027;SDS011;3555;53.248;10.336;2023-04-16T12:52:26;8.43;;;5.93;;
7027;SDS011;3555;53.248;10.336;2023-04-16T12:54:53;7.78;;;6.55;;
7027;SDS011;3555;53.248;10.336;2023-04-16T12:57:20;9.23;;;7.53;;
7027;SDS011;3555;53.248;10.336;2023-04-16T12:59:53;11.60;;;8.02;;
7027;SDS011;3555;53.248;10.336;2023-04-16T13:02:21;10.02;;;7.25;;
7027;SDS011;3555;53.248;10.336;2023-04-16T13:04:48;9.70;;;7.68;;
7027;SDS011;3555;53.248;10.336;2023-04-16T13:07:15;11.63;;;7.88;;
7027;SDS011;3555;53.248;10.336;2023-04-16T13:09:42;9.35;;;7.60;;
7027;SDS011;3555;53.248;10.336;2023-04-16T13:12:09;10.95;;;7.43;;
7027;SDS011;3555;53.248;10.336;2023-04-16T13:14:37;11.15;;;7.63;;
7027;SDS011;3555;53.248;10.336;2023-04-16T13:17:05;11.40;;;8.23;;
7027;SDS011;3555;53.248;10.336;2023-04-16T13:19:32;10.07;;;8.55;;
7027;SDS011;3555;53.248;10.336;2023-04-16T13:21:59;13.00;;;8.50;;
7027;SDS011;3555;53.248;10.336;2023-04-16T13:24:26;10.52;;;8.15;;
7027;SDS011;3555;53.248;10.336;2023-04-16T13:26:53;10.00;;;7.55;;
7027;SDS011;3555;53.248;10.336;2023-04-16T13:29:20;10.20;;;7.85;;
7027;SDS011;3555;53.248;10.336;2023-04-16T13:31:48;9.45;;;7.60;;
7027;SDS011;3555;53.248;10.336;2023-04-16T13:34:16;9.27;;;7.28;;
7027;SDS011;3555;53.248;10.336;2023-04-16T13:36:43;11.20;;;8.10;;
7027;SDS011;3555;53.248;10.336;2023-04-16T13:39:10;13.55;;;8.00;;
7027;SDS011;3555;53.248;10.336;2023-04-16T13:41:37;8.93;;;7.55;;
7027;SDS011;3555;53.248;10.336;2023-04-16T13:44:04;10.35;;;7.47;;
7027;SDS011;3555;53.248;10.336;2023-04-16T13:46:31;11.07;;;8.05;;
7027;SDS011;3555;53.248;10.336;2023-04-16T13:48:58;10.30;;;8.05;;
7027;SDS011;3555;53.248;10.336;2023-04-16T13:51:27;12.27;;;8.38;;
7027;SDS011;3555;53.248;10.336;2023-04-16T13:53:54;8.85;;;7.57;;
7027;SDS011;3555;53.248;10.336;2023-04-16T13:56:20;12.00;;;7.10;;
7027;SDS011;3555;53.248;10.336;2023-04-16T13:58:47;8.50;;;6.75;;
7027;SDS011;3555;53.248;10.336;2023-04-16T14:01:14;10.45;;;7.18;;
7027;SDS011;3555;53.248;10.336;2023-04-16T14:03:41;9.63;;;7.22;;
7027;SDS011;3555;53.248;10.336;2023-04-16T14:06:08;10.45;;;6.90;;
7027;SDS011;3555;53.248;10.336;2023-04-16T14:08:36;9.05;;;6.88;;
7027;SDS011;3555;53.248;10.336;2023-04-16T14:11:03;11.68;;;8.02;;
7027;SDS011;3555;53.248;10.336;2023-04-16T14:13:30;8.07;;;6.82;;
7027;SDS011;3555;53.248;10.336;2023-04-16T14:15:57;11.27;;;7.38;;
7027;SDS011;3555;53.248;10.336;2023-04-16T14:18:24;9.75;;;7.78;;
7027;SDS011;3555;53.248;10.336;2023-04-16T14:20:51;11.57;;;7.90;;
7027;SDS011;3555;53.248;10.336;2023-04-16T14:23:18;12.20;;;7.55;;
7027;SDS011;3555;53.248;10.336;2023-04-16T14:25:47;15.15;;;7.30;;
7027;SDS011;3555;53.248;10.336;2023-04-16T14:28:13;9.57;;;7.20;;
7027;SDS011;3555;53.248;10.336;2023-04-16T14:30:41;14.23;;;7.45;;
7027;SDS011;3555;53.248;10.336;2023-04-16T14:33:10;10.63;;;6.78;;
7027;SDS011;3555;53.248;10.336;2023-04-16T14:35:37;11.70;;;7.70;;
7027;SDS011;3555;53.248;10.336;2023-04-16T14:38:04;8.95;;;7.15;;
7027;SDS011;3555;53.248;10.336;2023-04-16T14:40:31;11.15;;;7.55;;
7027;SDS011;3555;53.248;10.336;2023-04-16T14:43:01;10.20;;;7.65;;
7027;SDS011;3555;53.248;10.336;2023-04-16T14:45:28;10.68;;;7.53;;
7027;SDS011;3555;53.248;10.336;2023-04-16T14:47:58;11.27;;;8.40;;